Time;durP1;ratioP1;P1;durP2;ratioP2;P2;SDS_P1;SDS_P2;PMS_P1;PMS_P2;Temp;Humidity;BMP_temperature;BMP_pressure;BME280_temperature;BME280_humidity;BME280_pressure;Samples;Min_cycle;Max_cycle;Signal;HPM_P1;HPM_P2
2023/12/12 00:00:33;;;;;;;6.37;2.63;;;;;;;-145.18;100.00;46701.41;5077617;28;20028;-66
2023/12/12 00:03:01;;;;;;;9.17;3.00;;;;;;;-145.18;100.00;46703.38;5075770;28;20056;-66
2023/12/12 00:05:27;;;;;;;12.17;3.67;;;;;;;-145.18;100.00;46683.84;5075908;28;20016;-66
2023/12/12 00:07:52;;;;;;;16.40;3.63;;;;;;;-145.18;100.00;46693.59;5075962;28;20755;-66
2023/12/12 00:10:17;;;;;;;10.40;3.43;;;;;;;-145.18;100.00;46703.38;5079615;28;20156;-66
2023/12/12 00:12:44;;;;;;;12.13;3.70;;;;;;;-145.18;100.00;46703.38;5076993;28;20026;-66
2023/12/12 00:15:09;;;;;;;9.10;3.20;;;;;;;-145.18;100.00;46705.31;5079711;28;20055;-66
2023/12/12 00:17:35;;;;;;;11.03;3.90;;;;;;;-145.18;100.00;46701.41;5081595;28;20257;-66
2023/12/12 00:20:01;;;;;;;6.67;3.40;;;;;;;-145.18;100.00;46701.41;5076442;28;20432;-66
2023/12/12 00:22:26;;;;;;;16.50;3.83;;;;;;;-145.18;100.00;46689.69;5084575;28;20028;-65
2023/12/12 00:24:51;;;;;;;10.63;3.10;;;;;;;-145.18;100.00;46679.94;5074745;28;20032;-67
2023/12/12 00:27:17;;;;;;;12.53;3.70;;;;;;;-145.18;100.00;46691.66;5085600;28;20395;-66
2023/12/12 00:29:44;;;;;;;17.27;4.73;;;;;;;-145.18;100.00;46693.59;5075795;28;20031;-66
2023/12/12 00:32:10;;;;;;;12.30;3.33;;;;;;;-145.18;100.00;46691.66;5087025;28;20773;-66
2023/12/12 00:34:36;;;;;;;10.23;3.57;;;;;;;-145.18;100.00;46689.69;5075816;28;20250;-66
2023/12/12 00:37:02;;;;;;;10.77;3.53;;;;;;;-145.18;100.00;46693.59;5074738;28;20017;-65
2023/12/12 00:39:27;;;;;;;11.83;3.83;;;;;;;-145.18;100.00;46693.59;5075534;28;20363;-66
2023/12/12 00:41:53;;;;;;;10.03;3.67;;;;;;;-145.18;100.00;46687.75;5082302;28;20111;-66
2023/12/12 00:44:18;;;;;;;18.10;4.23;;;;;;;-145.18;100.00;46691.66;5076720;28;20094;-65
2023/12/12 00:46:44;;;;;;;11.17;3.60;;;;;;;-145.18;100.00;46685.78;5081690;28;20476;-65
2023/12/12 00:49:09;;;;;;;14.87;4.50;;;;;;;-145.18;100.00;46687.75;5078094;28;20028;-66
2023/12/12 00:51:35;;;;;;;14.30;4.53;;;;;;;-145.18;100.00;46687.75;5076481;28;20556;-66
2023/12/12 00:54:00;;;;;;;10.33;3.73;;;;;;;-145.18;100.00;46697.50;5082189;28;20496;-66
2023/12/12 00:56:26;;;;;;;9.03;3.67;;;;;;;-145.18;100.00;46685.78;5080278;28;20024;-66
2023/12/12 00:58:51;;;;;;;14.03;4.63;;;;;;;-145.18;100.00;46689.69;5074408;28;20102;-66
2023/12/12 01:01:17;;;;;;;10.80;3.80;;;;;;;-145.18;100.00;46687.75;5082760;28;20111;-66
2023/12/12 01:03:42;;;;;;;9.77;3.80;;;;;;;-145.18;100.00;46695.56;5089405;28;20447;-66
2023/12/12 01:06:08;;;;;;;15.07;4.23;;;;;;;-145.18;100.00;46693.59;5074405;28;20061;-66
2023/12/12 01:08:33;;;;;;;17.80;4.50;;;;;;;-145.18;100.00;46695.56;5081205;28;20039;-66
2023/12/12 01:10:59;;;;;;;17.47;4.60;;;;;;;-145.18;100.00;46687.75;5077589;28;20024;-66
2023/12/12 01:13:24;;;;;;;10.70;5.40;;;;;;;-145.18;100.00;46701.41;5074467;28;20053;-66
2023/12/12 01:15:49;;;;;;;13.63;4.93;;;;;;;-145.18;100.00;46689.69;5079482;28;20020;-66
2023/12/12 01:18:15;;;;;;;14.33;4.80;;;;;;;-145.18;100.00;46683.84;5093628;28;20085;-66
2023/12/12 01:20:40;;;;;;;16.17;4.50;;;;;;;-145.18;100.00;46679.94;5084019;28;20491;-73
2023/12/12 01:23:05;;;;;;;11.13;4.53;;;;;;;-145.18;100.00;46683.84;5085929;28;20055;-72
2023/12/12 01:25:31;;;;;;;11.40;4.40;;;;;;;-145.18;100.00;46683.84;5074966;28;20025;-73
2023/12/12 01:27:57;;;;;;;7.97;4.73;;;;;;;-145.18;100.00;46681.88;5080397;28;20107;-72
2023/12/12 01:30:22;;;;;;;13.30;4.10;;;;;;;-145.18;100.00;46679.94;5085962;28;20100;-72
2023/12/12 01:32:48;;;;;;;10.30;4.00;;;;;;;-145.18;100.00;46683.84;5084389;28;20048;-72
2023/12/12 01:35:13;;;;;;;16.63;4.63;;;;;;;-145.18;100.00;46681.88;5087481;28;20032;-73
2023/12/12 01:37:38;;;;;;;8.33;4.27;;;;;;;-145.18;100.00;46683.84;5079346;28;20541;-72
2023/12/12 01:40:04;;;;;;;11.43;4.50;;;;;;;-145.18;100.00;46677.97;5073218;28;20071;-73
2023/12/12 01:42:30;;;;;;;7.87;4.47;;;;;;;-145.18;100.00;46681.88;5074869;28;20112;-73
2023/12/12 01:44:56;;;;;;;9.60;3.67;;;;;;;-145.18;100.00;46676.03;5081145;28;20304;-74
2023/12/12 01:47:22;;;;;;;11.83;4.67;;;;;;;-145.18;100.00;46689.69;5073429;28;20036;-74
2023/12/12 01:49:48;;;;;;;15.73;5.37;;;;;;;-145.18;100.00;46683.84;5082108;28;20028;-73
2023/12/12 01:52:14;;;;;;;11.83;5.47;;;;;;;-145.18;100.00;46685.78;5073168;28;20032;-72
2023/12/12 01:54:44;;;;;;;15.00;5.67;;;;;;;-145.18;100.00;46672.13;5083327;28;20028;-72
2023/12/12 01:57:11;;;;;;;11.03;4.90;;;;;;;-145.18;100.00;46685.78;5073154;28;20335;-72
2023/12/12 01:59:37;;;;;;;11.87;5.30;;;;;;;-145.18;100.00;46685.78;5074446;28;20268;-72
2023/12/12 02:02:03;;;;;;;14.13;5.50;;;;;;;-145.18;100.00;46679.94;5079022;28;20659;-73
2023/12/12 02:04:29;;;;;;;11.43;5.00;;;;;;;-145.18;100.00;46681.88;5072841;28;20327;-72
2023/12/12 02:06:56;;;;;;;14.20;5.13;;;;;;;-145.18;100.00;46672.13;5093672;28;20103;-73
2023/12/12 02:09:21;;;;;;;15.27;5.90;;;;;;;-145.18;100.00;46676.03;5089172;28;20077;-72
2023/12/12 02:11:47;;;;;;;24.37;6.17;;;;;;;-145.18;100.00;46677.97;5081567;28;20260;-73
2023/12/12 02:14:12;;;;;;;19.53;6.67;;;;;;;-145.18;100.00;46677.97;5089832;28;20088;-73
2023/12/12 02:16:39;;;;;;;16.03;6.97;;;;;;;-145.18;100.00;46687.75;5073014;28;20522;-72
2023/12/12 02:19:04;;;;;;;15.93;6.87;;;;;;;-145.18;100.00;46679.94;5074221;28;20028;-73
2023/12/12 02:21:29;;;;;;;13.37;6.53;;;;;;;-145.18;100.00;46681.88;5084725;28;20288;-72
2023/12/12 02:23:55;;;;;;;19.30;7.43;;;;;;;-145.18;100.00;46676.03;5080476;28;20040;-73
2023/12/12 02:26:20;;;;;;;15.43;7.67;;;;;;;-145.18;100.00;46677.97;5090519;28;20042;-72
2023/12/12 02:28:46;;;;;;;18.67;7.50;;;;;;;-145.18;100.00;46672.13;5089559;28;20811;-73
2023/12/12 02:31:12;;;;;;;33.03;7.87;;;;;;;-145.18;100.00;46676.03;5072524;28;20044;-73
2023/12/12 02:33:38;;;;;;;17.27;7.73;;;;;;;-145.18;100.00;46679.94;5083753;28;20059;-72
2023/12/12 02:36:04;;;;;;;18.63;7.33;;;;;;;-145.18;100.00;46676.03;5072507;28;20772;-72
2023/12/12 02:38:29;;;;;;;18.77;7.60;;;;;;;-145.18;100.00;46676.03;5076184;28;20028;-72
2023/12/12 02:40:55;;;;;;;24.10;9.20;;;;;;;-145.18;100.00;46679.94;5076189;28;20719;-73
2023/12/12 02:43:20;;;;;;;16.90;7.40;;;;;;;-145.18;100.00;46681.88;5081268;28;20032;-72
2023/12/12 02:45:45;;;;;;;18.50;7.73;;;;;;;-145.18;100.00;46676.03;5072186;28;20078;-73
2023/12/12 02:48:11;;;;;;;18.73;8.23;;;;;;;-145.18;100.00;46677.97;5087643;28;20024;-72
2023/12/12 02:50:37;;;;;;;19.20;7.87;;;;;;;-145.18;100.00;46676.03;5080716;28;20032;-72
2023/12/12 02:53:02;;;;;;;20.13;8.73;;;;;;;-145.18;100.00;46672.13;5076180;28;20103;-72
2023/12/12 02:55:27;;;;;;;21.33;10.17;;;;;;;-145.18;100.00;46677.97;5072107;28;20476;-72
2023/12/12 02:57:53;;;;;;;17.80;8.60;;;;;;;-145.18;100.00;46681.88;5075911;28;20035;-73
2023/12/12 03:00:18;;;;;;;16.87;8.67;;;;;;;-145.18;100.00;46674.06;5072188;28;20031;-73
2023/12/12 03:02:44;;;;;;;16.20;7.90;;;;;;;-145.18;100.00;46674.06;5083481;28;20028;-72
2023/12/12 03:05:09;;;;;;;25.07;8.83;;;;;;;-145.18;100.00;46677.97;5082313;28;20476;-73
2023/12/12 03:07:34;;;;;;;16.27;8.17;;;;;;;-145.18;100.00;46674.06;5086986;28;20020;-72
2023/12/12 03:10:00;;;;;;;20.47;9.30;;;;;;;-145.18;100.00;46676.03;5090174;28;20028;-73
2023/12/12 03:12:25;;;;;;;15.57;8.07;;;;;;;-145.18;100.00;46674.06;5084975;28;20046;-72
2023/12/12 03:14:51;;;;;;;19.03;8.40;;;;;;;-145.18;100.00;46672.13;5085052;28;20098;-72
2023/12/12 03:17:16;;;;;;;25.97;8.63;;;;;;;-145.18;100.00;46681.88;5081795;28;20075;-73
2023/12/12 03:19:41;;;;;;;21.20;8.97;;;;;;;-145.18;100.00;46674.06;5082465;28;20028;-73
2023/12/12 03:22:07;;;;;;;17.47;8.37;;;;;;;-145.18;100.00;46676.03;5072089;28;20031;-72
2023/12/12 03:24:32;;;;;;;19.10;8.67;;;;;;;-145.18;100.00;46674.06;5076906;28;20020;-72
2023/12/12 03:26:58;;;;;;;16.37;8.43;;;;;;;-145.18;100.00;46672.13;5074385;28;20032;-73
2023/12/12 03:29:23;;;;;;;20.00;8.70;;;;;;;-145.18;100.00;46664.31;5076902;28;20025;-72
2023/12/12 03:31:49;;;;;;;21.70;8.67;;;;;;;-145.18;100.00;46672.13;5087360;28;20131;-72
2023/12/12 03:34:14;;;;;;;23.23;9.10;;;;;;;-145.18;100.00;46670.16;5084729;28;20036;-73
2023/12/12 03:36:43;;;;;;;21.07;8.40;;;;;;;-145.18;100.00;46668.22;5073672;28;20472;-73
2023/12/12 03:39:10;;;;;;;25.73;8.90;;;;;;;-145.18;100.00;46672.13;5081207;28;20030;-72
2023/12/12 03:41:36;;;;;;;21.27;8.07;;;;;;;-145.18;100.00;46668.22;5072015;28;20311;-66
2023/12/12 03:44:01;;;;;;;18.50;8.10;;;;;;;-145.18;100.00;46670.16;5074278;28;20276;-66
2023/12/12 03:46:26;;;;;;;15.57;8.57;;;;;;;-145.18;100.00;46670.16;5074405;28;20036;-66
2023/12/12 03:48:52;;;;;;;18.87;8.20;;;;;;;-145.18;100.00;46676.03;5053507;28;20028;-66
2023/12/12 03:51:17;;;;;;;17.20;8.43;;;;;;;-145.18;100.00;46666.25;5071446;28;20036;-66
2023/12/12 03:53:43;;;;;;;25.10;8.53;;;;;;;-145.18;100.00;46672.13;5071628;28;20021;-66
2023/12/12 03:56:08;;;;;;;17.57;7.73;;;;;;;-145.18;100.00;46668.22;5075370;28;20039;-66
2023/12/12 03:58:34;;;;;;;17.23;8.20;;;;;;;-145.18;100.00;46670.16;5090709;28;20037;-66
2023/12/12 04:00:59;;;;;;;27.80;8.93;;;;;;;-145.18;100.00;46664.31;5080836;28;20074;-66
2023/12/12 04:03:26;;;;;;;26.20;9.27;;;;;;;-145.18;100.00;46672.13;5077951;28;20037;-66
2023/12/12 04:05:51;;;;;;;20.27;8.30;;;;;;;-145.18;100.00;46668.22;5071835;28;20054;-66
2023/12/12 04:08:16;;;;;;;24.40;7.93;;;;;;;-145.18;100.00;46666.25;5071097;28;20269;-65
2023/12/12 04:10:42;;;;;;;31.70;9.60;;;;;;;-145.18;100.00;46668.22;5071491;28;20442;-66
2023/12/12 04:13:07;;;;;;;23.63;8.40;;;;;;;-145.18;100.00;46670.16;5071111;28;20041;-66
2023/12/12 04:15:33;;;;;;;23.63;8.33;;;;;;;-145.18;100.00;46666.25;5082223;28;20031;-66
2023/12/12 04:17:58;;;;;;;31.43;8.60;;;;;;;-145.18;100.00;46666.25;5083435;28;20031;-66
2023/12/12 04:20:24;;;;;;;20.27;8.33;;;;;;;-145.18;100.00;46668.22;5081730;28;20557;-66
2023/12/12 04:22:49;;;;;;;24.90;8.43;;;;;;;-145.18;100.00;46664.31;5072588;28;20108;-66
2023/12/12 04:25:14;;;;;;;16.63;7.07;;;;;;;-145.18;100.00;46668.22;5078276;28;20044;-66
2023/12/12 04:27:40;;;;;;;22.30;8.07;;;;;;;-145.18;100.00;46664.31;5070323;28;20472;-65
2023/12/12 04:30:06;;;;;;;25.60;7.60;;;;;;;-145.18;100.00;46664.31;5087878;28;20036;-66
2023/12/12 04:32:32;;;;;;;27.77;8.30;;;;;;;-145.18;100.00;46666.25;5071176;28;20099;-66
2023/12/12 04:34:59;;;;;;;24.20;7.47;;;;;;;-145.18;100.00;46670.16;5069430;28;20696;-66
2023/12/12 04:37:24;;;;;;;31.10;8.10;;;;;;;-145.18;100.00;46672.13;5081521;28;20507;-66
2023/12/12 04:39:49;;;;;;;31.10;8.63;;;;;;;-145.18;100.00;46666.25;5072379;28;20246;-66
2023/12/12 04:42:15;;;;;;;22.53;6.67;;;;;;;-145.18;100.00;46662.34;5077665;28;20068;-66
2023/12/12 04:44:41;;;;;;;39.87;8.07;;;;;;;-145.18;100.00;46668.22;5076226;28;20028;-66
2023/12/12 04:47:07;;;;;;;31.70;7.73;;;;;;;-145.18;100.00;46664.31;5074495;28;20031;-66
2023/12/12 04:49:32;;;;;;;33.87;7.70;;;;;;;-145.18;100.00;46664.31;5074203;28;20348;-66
2023/12/12 04:51:58;;;;;;;32.90;7.93;;;;;;;-145.18;100.00;46666.25;5074114;28;20044;-66
2023/12/12 04:54:23;;;;;;;30.07;7.93;;;;;;;-145.18;100.00;46662.34;5072658;28;20021;-66
2023/12/12 04:56:48;;;;;;;30.77;8.27;;;;;;;-145.18;100.00;46666.25;5092572;28;20064;-66
2023/12/12 04:59:14;;;;;;;38.53;8.60;;;;;;;-145.18;100.00;46664.31;5074230;28;20036;-66
2023/12/12 05:01:39;;;;;;;33.70;8.43;;;;;;;-145.18;100.00;46662.34;5080929;28;20086;-72
2023/12/12 05:04:05;;;;;;;28.00;7.97;;;;;;;-145.18;100.00;46668.22;5087398;28;20066;-73
2023/12/12 05:06:30;;;;;;;44.07;7.93;;;;;;;-145.18;100.00;46658.44;5075588;28;20029;-73
2023/12/12 05:08:55;;;;;;;27.87;8.80;;;;;;;-145.18;100.00;46660.41;5086388;28;20029;-72
2023/12/12 05:11:21;;;;;;;32.47;8.77;;;;;;;-145.18;100.00;46664.31;5082414;28;20044;-72
2023/12/12 05:13:46;;;;;;;29.77;7.77;;;;;;;-145.18;100.00;46666.25;5067476;28;20053;-73
2023/12/12 05:16:12;;;;;;;30.90;9.10;;;;;;;-145.18;100.00;46658.44;5077705;28;20143;-73
2023/12/12 05:18:38;;;;;;;30.37;9.20;;;;;;;-145.18;100.00;46656.50;5082916;28;20060;-73
2023/12/12 05:21:04;;;;;;;32.10;8.50;;;;;;;-145.18;100.00;46656.50;5072617;28;20300;-72
2023/12/12 05:23:29;;;;;;;37.07;8.63;;;;;;;-145.18;100.00;46656.50;5078774;28;20024;-72
2023/12/12 05:25:54;;;;;;;38.80;8.63;;;;;;;-145.18;100.00;46658.44;5084466;28;20395;-72
2023/12/12 05:28:21;;;;;;;32.47;8.97;;;;;;;-145.18;100.00;46662.34;5080184;28;20028;-73
2023/12/12 05:30:47;;;;;;;37.90;8.50;;;;;;;-145.18;100.00;46658.44;5085381;28;20086;-73
2023/12/12 05:33:15;;;;;;;36.43;10.57;;;;;;;-145.18;100.00;46654.53;5092263;28;20264;-73
2023/12/12 05:35:40;;;;;;;49.30;9.10;;;;;;;-145.18;100.00;46656.50;5080944;28;20070;-72
2023/12/12 05:38:06;;;;;;;40.07;8.27;;;;;;;-145.18;100.00;46654.53;5089993;28;20308;-73
2023/12/12 05:40:32;;;;;;;37.40;8.43;;;;;;;-145.18;100.00;46654.53;5084779;28;20028;-73
2023/12/12 05:42:58;;;;;;;34.77;8.40;;;;;;;-145.18;100.00;46656.50;5086068;28;20261;-72
2023/12/12 05:45:24;;;;;;;26.63;7.80;;;;;;;-145.18;100.00;46652.59;5089369;28;20024;-73
2023/12/12 05:47:49;;;;;;;28.50;7.87;;;;;;;-145.18;100.00;46652.59;5091764;28;20028;-74
2023/12/12 05:50:15;;;;;;;34.23;8.80;;;;;;;-145.18;100.00;46654.53;5092462;28;20028;-72
2023/12/12 05:52:40;;;;;;;33.40;9.50;;;;;;;-145.18;100.00;46654.53;5089330;28;20020;-74
2023/12/12 05:55:06;;;;;;;33.40;10.20;;;;;;;-145.18;100.00;46654.53;5085099;28;20031;-72
2023/12/12 05:57:32;;;;;;;45.13;9.00;;;;;;;-145.18;100.00;46652.59;5087725;28;20028;-73
2023/12/12 05:59:59;;;;;;;40.50;8.80;;;;;;;-145.18;100.00;46660.41;5086477;28;20051;-72
2023/12/12 06:02:24;;;;;;;31.93;9.77;;;;;;;-145.18;100.00;46652.59;5077516;28;20637;-72
2023/12/12 06:04:50;;;;;;;37.23;10.50;;;;;;;-145.18;100.00;46654.53;5089779;28;20393;-72
2023/12/12 06:07:15;;;;;;;35.80;11.10;;;;;;;-145.18;100.00;46658.44;5076364;28;20033;-71
2023/12/12 06:09:41;;;;;;;31.17;10.37;;;;;;;-145.18;100.00;46658.44;5073589;28;20052;-73
2023/12/12 06:12:07;;;;;;;37.60;9.60;;;;;;;-145.18;100.00;46654.53;5091273;28;20143;-72
2023/12/12 06:14:33;;;;;;;32.83;8.10;;;;;;;-145.18;100.00;46652.59;5084213;28;20117;-72
2023/12/12 06:16:58;;;;;;;36.53;8.10;;;;;;;-145.18;100.00;46650.63;5075518;28;20773;-72
2023/12/12 06:19:24;;;;;;;28.77;8.73;;;;;;;-145.18;100.00;46660.41;5081571;28;20465;-72
2023/12/12 06:21:53;;;;;;;32.93;7.53;;;;;;;-145.18;100.00;46658.44;5083623;28;20074;-72
2023/12/12 06:24:18;;;;;;;38.43;8.63;;;;;;;-145.18;100.00;46656.50;5072683;28;20250;-72
2023/12/12 06:26:44;;;;;;;29.03;8.10;;;;;;;-145.18;100.00;46656.50;5085669;28;20260;-72
2023/12/12 06:29:09;;;;;;;31.93;8.07;;;;;;;-145.18;100.00;46654.53;5086885;28;20025;-72
2023/12/12 06:31:35;;;;;;;29.90;8.57;;;;;;;-145.18;100.00;46656.50;5100219;28;20554;-72
2023/12/12 06:34:01;;;;;;;25.23;8.47;;;;;;;-145.18;100.00;46654.53;5089673;28;20031;-72
2023/12/12 06:36:26;;;;;;;35.67;8.30;;;;;;;-145.18;100.00;46652.59;5087223;28;20277;-72
2023/12/12 06:38:51;;;;;;;39.73;8.63;;;;;;;-145.18;100.00;46652.59;5085925;28;20020;-73
2023/12/12 06:41:17;;;;;;;31.13;9.17;;;;;;;-145.18;100.00;46656.50;5085727;28;20115;-73
2023/12/12 06:43:43;;;;;;;29.40;7.80;;;;;;;-145.18;100.00;46660.41;5072573;28;20024;-72
2023/12/12 06:46:09;;;;;;;31.57;8.93;;;;;;;-145.18;100.00;46654.53;5078168;28;20031;-72
2023/12/12 06:48:36;;;;;;;22.40;8.43;;;;;;;-145.18;100.00;46654.53;5084606;28;20245;-72
2023/12/12 06:51:03;;;;;;;36.30;9.83;;;;;;;-145.18;100.00;46652.59;5085715;28;20381;-72
2023/12/12 06:53:28;;;;;;;33.47;8.50;;;;;;;-145.18;100.00;46654.53;5074140;28;20261;-72
2023/12/12 06:55:54;;;;;;;25.63;7.17;;;;;;;-145.18;100.00;46656.50;5087045;28;20273;-73
2023/12/12 06:58:22;;;;;;;29.53;8.50;;;;;;;-145.18;100.00;46658.44;5084345;28;20421;-72
2023/12/12 07:00:47;;;;;;;28.47;8.07;;;;;;;-145.18;100.00;46654.53;5082115;28;20039;-73
2023/12/12 07:03:13;;;;;;;35.87;9.43;;;;;;;-145.18;100.00;46654.53;5088919;28;20737;-72
2023/12/12 07:05:39;;;;;;;25.67;8.67;;;;;;;-145.18;100.00;46652.59;5088266;28;20032;-73
2023/12/12 07:08:05;;;;;;;43.60;8.57;;;;;;;-145.18;100.00;46648.69;5081110;28;20024;-73
2023/12/12 07:10:31;;;;;;;38.63;8.90;;;;;;;-145.18;100.00;46652.59;5088994;28;20408;-74
2023/12/12 07:12:58;;;;;;;32.57;8.53;;;;;;;-145.18;100.00;46652.59;5074161;28;20500;-72
2023/12/12 07:15:25;;;;;;;26.67;8.07;;;;;;;-145.18;100.00;46658.44;5077363;28;20776;-73
2023/12/12 07:17:51;;;;;;;35.00;9.50;;;;;;;-145.18;100.00;46652.59;5081916;28;20288;-73
2023/12/12 07:20:16;;;;;;;26.03;8.57;;;;;;;-145.18;100.00;46652.59;5075535;28;20335;-73
2023/12/12 07:22:42;;;;;;;26.77;7.87;;;;;;;-145.18;100.00;46654.53;5081001;28;20042;-73
2023/12/12 07:25:08;;;;;;;30.47;6.97;;;;;;;-145.18;100.00;46658.44;5085998;28;20024;-72
2023/12/12 07:27:33;;;;;;;30.07;8.10;;;;;;;-145.18;100.00;46650.63;5082683;28;20771;-72
2023/12/12 07:29:59;;;;;;;35.10;7.67;;;;;;;-145.18;100.00;46654.53;5075980;28;20024;-73
2023/12/12 07:32:26;;;;;;;36.27;8.03;;;;;;;-145.18;100.00;46654.53;5086886;28;20032;-72
2023/12/12 07:34:52;;;;;;;33.50;7.10;;;;;;;-145.18;100.00;46656.50;5077292;28;20032;-73
2023/12/12 07:37:17;;;;;;;31.57;6.57;;;;;;;-145.18;100.00;46652.59;5081429;28;20782;-73
2023/12/12 07:39:43;;;;;;;28.60;7.10;;;;;;;-145.18;100.00;46656.50;5087197;28;20029;-73
2023/12/12 07:42:08;;;;;;;32.20;7.10;;;;;;;-145.18;100.00;46656.50;5089148;28;20036;-73
2023/12/12 07:44:33;;;;;;;33.17;7.33;;;;;;;-145.18;100.00;46654.53;5083915;28;20036;-73
2023/12/12 07:47:02;;;;;;;29.27;7.03;;;;;;;-145.18;100.00;46652.59;5072157;28;20016;-72
2023/12/12 07:49:28;;;;;;;29.60;5.93;;;;;;;-145.18;100.00;46656.50;5073971;28;20033;-72
2023/12/12 07:51:54;;;;;;;21.37;6.93;;;;;;;-145.18;100.00;46656.50;5091230;28;20261;-72
2023/12/12 07:54:20;;;;;;;26.63;6.80;;;;;;;-145.18;100.00;46656.50;5076279;28;20272;-73
2023/12/12 07:56:45;;;;;;;33.47;6.67;;;;;;;-145.18;100.00;46652.59;5083988;28;20024;-73
2023/12/12 07:59:11;;;;;;;28.97;6.97;;;;;;;-145.18;100.00;46654.53;5076878;28;20040;-73
2023/12/12 08:01:37;;;;;;;29.20;6.80;;;;;;;-145.18;100.00;46656.50;5078829;28;20025;-73
2023/12/12 08:04:04;;;;;;;25.13;6.70;;;;;;;-145.18;100.00;46650.63;5079563;28;20081;-73
2023/12/12 08:06:30;;;;;;;30.07;7.30;;;;;;;-145.18;100.00;46648.69;5077828;28;20043;-74
2023/12/12 08:08:56;;;;;;;27.70;6.67;;;;;;;-145.18;100.00;46652.59;5078924;28;20264;-73
2023/12/12 08:11:24;;;;;;;41.03;7.20;;;;;;;-145.18;100.00;46652.59;5079730;28;20276;-73
2023/12/12 08:13:50;;;;;;;23.97;6.60;;;;;;;-145.18;100.00;46652.59;5080678;28;20489;-72
2023/12/12 08:16:15;;;;;;;28.70;6.03;;;;;;;-145.18;100.00;46656.50;5081471;28;20285;-74
2023/12/12 08:18:40;;;;;;;33.20;7.43;;;;;;;-145.18;100.00;46652.59;5081560;28;20036;-74
2023/12/12 08:21:09;;;;;;;33.37;8.27;;;;;;;-145.18;100.00;46656.50;5083090;28;20035;-73
2023/12/12 08:23:37;;;;;;;35.87;9.10;;;;;;;-145.18;100.00;46652.59;5084175;28;20477;-74
2023/12/12 08:26:03;;;;;;;35.80;7.63;;;;;;;-145.18;100.00;46654.53;5083682;28;20751;-74
2023/12/12 08:28:28;;;;;;;42.00;8.07;;;;;;;-145.18;100.00;46652.59;5083932;28;20885;-74
2023/12/12 08:30:54;;;;;;;35.50;7.80;;;;;;;-145.18;100.00;46648.69;5083891;28;20273;-74
2023/12/12 08:33:20;;;;;;;43.90;8.00;;;;;;;-145.18;100.00;46646.72;5083188;28;20024;-74
2023/12/12 08:35:46;;;;;;;28.13;8.33;;;;;;;-145.18;100.00;46648.69;5082102;28;20276;-73
2023/12/12 08:38:12;;;;;;;44.93;9.30;;;;;;;-145.18;100.00;46648.69;5082470;28;20109;-73
2023/12/12 08:40:37;;;;;;;26.17;8.57;;;;;;;-145.18;100.00;46648.69;5081672;28;20276;-73
2023/12/12 08:43:02;;;;;;;40.10;9.00;;;;;;;-145.18;100.00;46646.72;5082518;28;20460;-73
2023/12/12 08:45:29;;;;;;;32.47;8.10;;;;;;;-145.18;100.00;46648.69;5065628;28;20066;-74
2023/12/12 08:47:54;;;;;;;26.53;8.27;;;;;;;-145.18;100.00;46648.69;5084625;28;20120;-73
2023/12/12 08:50:20;;;;;;;35.73;8.77;;;;;;;-145.18;100.00;46644.78;5083160;28;20371;-74
2023/12/12 08:52:46;;;;;;;41.10;9.10;;;;;;;-145.18;100.00;46640.88;5081936;28;20040;-74
2023/12/12 08:55:11;;;;;;;28.53;7.03;;;;;;;-145.18;100.00;46648.69;5070581;28;20032;-74
2023/12/12 08:57:37;;;;;;;31.87;8.57;;;;;;;-145.18;100.00;46642.81;5080484;28;20085;-73
2023/12/12 09:00:03;;;;;;;27.27;7.93;;;;;;;-145.18;100.00;46644.78;5090525;28;20071;-74
2023/12/12 09:02:29;;;;;;;32.03;8.23;;;;;;;-145.18;100.00;46644.78;5078908;28;20472;-73
2023/12/12 09:04:55;;;;;;;31.57;7.77;;;;;;;-145.18;100.00;46640.88;5074330;28;20315;-74
2023/12/12 09:07:20;;;;;;;41.13;8.30;;;;;;;-145.18;100.00;46638.91;5087775;28;20066;-74
2023/12/12 09:09:46;;;;;;;35.67;8.00;;;;;;;-145.18;100.00;46640.88;5091100;28;20043;-74
2023/12/12 09:12:11;;;;;;;43.13;7.67;;;;;;;-145.18;100.00;46640.88;5091980;28;20114;-74
2023/12/12 09:14:36;;;;;;;43.97;8.50;;;;;;;-145.18;100.00;46640.88;5089767;28;20048;-75
2023/12/12 09:17:02;;;;;;;43.07;8.13;;;;;;;-145.18;100.00;46640.88;5091599;28;20035;-73
2023/12/12 09:19:27;;;;;;;40.17;8.77;;;;;;;-145.18;100.00;46633.06;5087812;28;20046;-73
2023/12/12 09:21:54;;;;;;;37.73;7.17;;;;;;;-145.18;100.00;46638.91;5090848;28;20066;-73
2023/12/12 09:24:20;;;;;;;43.00;8.30;;;;;;;-145.18;100.00;46635.00;5091833;28;20115;-73
2023/12/12 09:26:46;;;;;;;29.93;7.43;;;;;;;-145.18;100.00;46636.94;5091858;28;20850;-73
2023/12/12 09:29:11;;;;;;;44.97;8.33;;;;;;;-145.18;100.00;46636.94;5086520;28;20085;-74
2023/12/12 09:31:37;;;;;;;29.63;7.87;;;;;;;-145.18;100.00;46638.91;5083619;28;20277;-74
2023/12/12 09:34:02;;;;;;;31.93;6.43;;;;;;;-145.18;100.00;46636.94;5088770;28;20062;-73
2023/12/12 09:36:28;;;;;;;29.67;7.97;;;;;;;-145.18;100.00;46642.81;5084876;28;20063;-73
2023/12/12 09:38:53;;;;;;;31.13;7.00;;;;;;;-145.18;100.00;46636.94;5091737;28;20032;-73
2023/12/12 09:41:21;;;;;;;30.87;6.73;;;;;;;-145.18;100.00;46636.94;5090961;28;20041;-74
2023/12/12 09:43:48;;;;;;;33.57;6.50;;;;;;;-145.18;100.00;46640.88;5090497;28;20027;-74
2023/12/12 09:46:15;;;;;;;33.30;7.37;;;;;;;-145.18;100.00;46640.88;5089486;28;20268;-73
2023/12/12 09:48:42;;;;;;;25.10;6.53;;;;;;;-145.18;100.00;46638.91;5086601;28;20280;-73
2023/12/12 09:51:08;;;;;;;26.63;7.50;;;;;;;-145.18;100.00;46640.88;5091453;28;20295;-73
2023/12/12 09:53:35;;;;;;;40.27;7.17;;;;;;;-145.18;100.00;46638.91;5085351;28;20301;-74
2023/12/12 09:56:06;;;;;;;28.33;6.43;;;;;;;-145.18;100.00;46642.81;5090086;28;20288;-74
2023/12/12 09:58:32;;;;;;;28.50;7.00;;;;;;;-145.18;100.00;46642.81;5084884;28;20280;-74
2023/12/12 10:01:02;;;;;;;31.57;6.17;;;;;;;-145.18;100.00;46648.69;5092895;28;20047;-74
2023/12/12 10:03:28;;;;;;;31.90;6.17;;;;;;;-145.18;100.00;46642.81;5085067;28;20039;-73
2023/12/12 10:05:56;;;;;;;27.07;5.93;;;;;;;-145.18;100.00;46644.78;5088794;28;20135;-74
2023/12/12 10:08:23;;;;;;;33.93;8.10;;;;;;;-145.18;100.00;46648.69;5085412;28;20028;-73
2023/12/12 10:10:52;;;;;;;18.93;5.33;;;;;;;-145.18;100.00;46648.69;5089492;28;20032;-73
2023/12/12 10:13:18;;;;;;;22.43;5.37;;;;;;;-145.18;100.00;46650.63;5085121;28;20277;-73
2023/12/12 10:15:44;;;;;;;26.30;6.27;;;;;;;-145.18;100.00;46654.53;5088070;28;20511;-73
2023/12/12 10:18:10;;;;;;;23.77;6.00;;;;;;;-145.18;100.00;46646.72;5090243;28;20024;-74
2023/12/12 10:20:35;;;;;;;16.80;5.67;;;;;;;-145.18;100.00;46652.59;5084439;28;20054;-74
2023/12/12 10:23:02;;;;;;;19.20;6.23;;;;;;;-145.18;100.00;46656.50;5089010;28;20065;-73
2023/12/12 10:25:33;;;;;;;20.63;5.03;;;;;;;-145.18;100.00;46658.44;5089306;28;20055;-74
2023/12/12 10:27:59;;;;;;;25.70;6.10;;;;;;;-145.18;100.00;46660.41;5080307;28;20115;-73
2023/12/12 10:30:26;;;;;;;22.87;5.47;;;;;;;-145.18;100.00;46666.25;5085578;28;20051;-73
2023/12/12 10:32:54;;;;;;;24.63;4.53;;;;;;;-145.18;100.00;46660.41;5088802;28;20040;-74
2023/12/12 10:35:24;;;;;;;18.03;5.70;;;;;;;-145.18;100.00;46672.13;5091132;28;20024;-73
2023/12/12 10:37:50;;;;;;;20.37;4.97;;;;;;;-145.18;100.00;46670.16;5087498;28;20035;-73
2023/12/12 10:40:24;;;;;;;24.07;5.13;;;;;;;-145.18;100.00;46674.06;5090830;28;20073;-73
2023/12/12 10:42:50;;;;;;;16.47;6.27;;;;;;;-145.18;100.00;46674.06;5089353;28;20514;-73
2023/12/12 10:45:17;;;;;;;22.67;5.00;;;;;;;-145.18;100.00;46683.84;5085534;28;20123;-74
2023/12/12 10:47:46;;;;;;;21.00;5.63;;;;;;;-145.18;100.00;46679.94;5083160;28;20024;-74
2023/12/12 10:50:16;;;;;;;17.73;4.30;;;;;;;-145.18;100.00;46676.03;5082860;28;20548;-73
2023/12/12 10:52:46;;;;;;;13.93;4.20;;;;;;;-145.18;100.00;46683.84;5102009;28;20043;-73
2023/12/12 10:55:13;;;;;;;27.83;4.83;;;;;;;-145.18;100.00;46685.78;5088818;28;20035;-73